sensor_id;sensor_type;location;lat;lon;timestamp;P1;durP1;ratioP1;P2;durP2;ratioP2
28547;SDS011;68292;49.600;8.746;2023-03-26T00:00:07;3.97;;;1.70;;
28547;SDS011;68292;49.600;8.746;2023-03-26T00:02:42;5.57;;;1.77;;
28547;SDS011;68292;49.600;8.746;2023-03-26T00:05:10;1.93;;;1.37;;
28547;SDS011;68292;49.600;8.746;2023-03-26T00:07:40;3.60;;;1.50;;
28547;SDS011;68292;49.600;8.746;2023-03-26T00:10:09;3.37;;;1.37;;
28547;SDS011;68292;49.600;8.746;2023-03-26T00:12:38;4.60;;;1.80;;
28547;SDS011;68292;49.600;8.746;2023-03-26T00:15:07;4.70;;;1.70;;
28547;SDS011;68292;49.600;8.746;2023-03-26T00:17:37;2.90;;;1.60;;
28547;SDS011;68292;49.600;8.746;2023-03-26T00:20:07;2.37;;;1.57;;
28547;SDS011;68292;49.600;8.746;2023-03-26T00:22:37;4.10;;;1.57;;
28547;SDS011;68292;49.600;8.746;2023-03-26T00:25:07;1.97;;;1.43;;
28547;SDS011;68292;49.600;8.746;2023-03-26T00:27:36;2.50;;;1.83;;
28547;SDS011;68292;49.600;8.746;2023-03-26T00:30:06;1.70;;;1.57;;
28547;SDS011;68292;49.600;8.746;2023-03-26T00:32:35;3.17;;;1.87;;
28547;SDS011;68292;49.600;8.746;2023-03-26T00:35:04;3.97;;;1.80;;
28547;SDS011;68292;49.600;8.746;2023-03-26T00:37:36;3.87;;;1.90;;
28547;SDS011;68292;49.600;8.746;2023-03-26T00:40:08;5.50;;;2.00;;
28547;SDS011;68292;49.600;8.746;2023-03-26T00:42:38;4.70;;;1.93;;
28547;SDS011;68292;49.600;8.746;2023-03-26T00:45:08;4.53;;;2.20;;
28547;SDS011;68292;49.600;8.746;2023-03-26T00:47:37;2.47;;;1.50;;
28547;SDS011;68292;49.600;8.746;2023-03-26T00:50:08;6.83;;;1.90;;
28547;SDS011;68292;49.600;8.746;2023-03-26T00:52:41;6.33;;;1.87;;
28547;SDS011;68292;49.600;8.746;2023-03-26T00:55:10;3.10;;;1.70;;
28547;SDS011;68292;49.600;8.746;2023-03-26T00:57:41;6.90;;;2.03;;
28547;SDS011;68292;49.600;8.746;2023-03-26T01:00:12;3.13;;;1.77;;
28547;SDS011;68292;49.600;8.746;2023-03-26T01:02:42;4.40;;;1.87;;
28547;SDS011;68292;49.600;8.746;2023-03-26T01:05:39;3.50;;;1.80;;
28547;SDS011;68292;49.600;8.746;2023-03-26T01:08:16;3.40;;;1.90;;
28547;SDS011;68292;49.600;8.746;2023-03-26T01:10:51;5.97;;;2.20;;
28547;SDS011;68292;49.600;8.746;2023-03-26T01:13:29;3.27;;;1.80;;
28547;SDS011;68292;49.600;8.746;2023-03-26T01:16:02;3.67;;;1.87;;
28547;SDS011;68292;49.600;8.746;2023-03-26T01:18:37;3.23;;;2.10;;
28547;SDS011;68292;49.600;8.746;2023-03-26T01:21:09;2.97;;;1.50;;
28547;SDS011;68292;49.600;8.746;2023-03-26T01:23:42;5.57;;;2.60;;
28547;SDS011;68292;49.600;8.746;2023-03-26T01:26:19;5.47;;;2.50;;
28547;SDS011;68292;49.600;8.746;2023-03-26T01:29:01;2.57;;;2.03;;
28547;SDS011;68292;49.600;8.746;2023-03-26T01:31:35;4.70;;;1.70;;
28547;SDS011;68292;49.600;8.746;2023-03-26T01:34:14;5.53;;;2.10;;
28547;SDS011;68292;49.600;8.746;2023-03-26T01:36:49;3.47;;;1.70;;
28547;SDS011;68292;49.600;8.746;2023-03-26T01:39:25;3.40;;;1.73;;
28547;SDS011;68292;49.600;8.746;2023-03-26T01:42:01;5.13;;;1.97;;
28547;SDS011;68292;49.600;8.746;2023-03-26T01:44:36;4.10;;;2.03;;
28547;SDS011;68292;49.600;8.746;2023-03-26T01:47:12;4.80;;;2.07;;
28547;SDS011;68292;49.600;8.746;2023-03-26T01:49:42;3.07;;;1.60;;
28547;SDS011;68292;49.600;8.746;2023-03-26T01:52:11;4.77;;;1.97;;
28547;SDS011;68292;49.600;8.746;2023-03-26T01:54:43;3.13;;;1.70;;
28547;SDS011;68292;49.600;8.746;2023-03-26T01:57:15;6.40;;;1.83;;
28547;SDS011;68292;49.600;8.746;2023-03-26T02:00:01;2.43;;;1.80;;
28547;SDS011;68292;49.600;8.746;2023-03-26T02:02:42;3.60;;;1.83;;
28547;SDS011;68292;49.600;8.746;2023-03-26T02:05:25;4.90;;;1.97;;
28547;SDS011;68292;49.600;8.746;2023-03-26T02:08:02;3.43;;;2.20;;
28547;SDS011;68292;49.600;8.746;2023-03-26T02:10:38;5.63;;;2.10;;
28547;SDS011;68292;49.600;8.746;2023-03-26T02:13:12;4.53;;;1.80;;
28547;SDS011;68292;49.600;8.746;2023-03-26T02:15:52;4.63;;;1.80;;
28547;SDS011;68292;49.600;8.746;2023-03-26T02:18:23;4.00;;;2.17;;
28547;SDS011;68292;49.600;8.746;2023-03-26T02:21:03;4.93;;;1.80;;
28547;SDS011;68292;49.600;8.746;2023-03-26T02:23:39;4.67;;;2.07;;
28547;SDS011;68292;49.600;8.746;2023-03-26T02:26:13;4.07;;;2.30;;
28547;SDS011;68292;49.600;8.746;2023-03-26T02:29:00;7.27;;;2.03;;
28547;SDS011;68292;49.600;8.746;2023-03-26T02:31:30;4.73;;;2.03;;
28547;SDS011;68292;49.600;8.746;2023-03-26T02:33:59;4.50;;;1.93;;
28547;SDS011;68292;49.600;8.746;2023-03-26T02:36:31;5.37;;;2.30;;
28547;SDS011;68292;49.600;8.746;2023-03-26T02:39:03;4.30;;;1.80;;
28547;SDS011;68292;49.600;8.746;2023-03-26T02:41:36;3.27;;;1.80;;
28547;SDS011;68292;49.600;8.746;2023-03-26T02:44:09;2.97;;;2.00;;
28547;SDS011;68292;49.600;8.746;2023-03-26T02:46:56;3.90;;;1.80;;
28547;SDS011;68292;49.600;8.746;2023-03-26T02:49:43;4.03;;;1.97;;
28547;SDS011;68292;49.600;8.746;2023-03-26T02:52:19;4.83;;;1.90;;
28547;SDS011;68292;49.600;8.746;2023-03-26T02:54:50;3.17;;;1.80;;
28547;SDS011;68292;49.600;8.746;2023-03-26T02:57:21;4.50;;;2.37;;
28547;SDS011;68292;49.600;8.746;2023-03-26T03:00:01;3.67;;;2.23;;
28547;SDS011;68292;49.600;8.746;2023-03-26T03:03:08;1.90;;;1.70;;
28547;SDS011;68292;49.600;8.746;2023-03-26T03:05:57;8.00;;;1.90;;
28547;SDS011;68292;49.600;8.746;2023-03-26T03:08:40;4.63;;;2.23;;
28547;SDS011;68292;49.600;8.746;2023-03-26T03:11:38;5.90;;;2.07;;
28547;SDS011;68292;49.600;8.746;2023-03-26T03:14:08;4.67;;;2.17;;
28547;SDS011;68292;49.600;8.746;2023-03-26T03:16:38;5.63;;;2.10;;
28547;SDS011;68292;49.600;8.746;2023-03-26T03:19:09;2.27;;;1.63;;
28547;SDS011;68292;49.600;8.746;2023-03-26T03:21:39;4.00;;;1.63;;
28547;SDS011;68292;49.600;8.746;2023-03-26T03:24:08;3.30;;;1.77;;
28547;SDS011;68292;49.600;8.746;2023-03-26T03:26:43;5.30;;;2.37;;
28547;SDS011;68292;49.600;8.746;2023-03-26T03:29:31;3.47;;;1.97;;
28547;SDS011;68292;49.600;8.746;2023-03-26T03:32:31;4.80;;;2.30;;
28547;SDS011;68292;49.600;8.746;2023-03-26T03:35:02;4.73;;;2.00;;
28547;SDS011;68292;49.600;8.746;2023-03-26T03:37:33;4.67;;;2.37;;
28547;SDS011;68292;49.600;8.746;2023-03-26T03:40:04;6.60;;;2.30;;
28547;SDS011;68292;49.600;8.746;2023-03-26T03:42:37;4.67;;;2.57;;
28547;SDS011;68292;49.600;8.746;2023-03-26T03:45:08;4.87;;;2.30;;
28547;SDS011;68292;49.600;8.746;2023-03-26T03:48:11;3.87;;;2.20;;
28547;SDS011;68292;49.600;8.746;2023-03-26T03:50:44;2.67;;;1.70;;
28547;SDS011;68292;49.600;8.746;2023-03-26T03:53:22;4.57;;;2.33;;
28547;SDS011;68292;49.600;8.746;2023-03-26T03:55:55;3.37;;;1.93;;
28547;SDS011;68292;49.600;8.746;2023-03-26T03:58:38;4.40;;;2.40;;
28547;SDS011;68292;49.600;8.746;2023-03-26T04:01:13;4.73;;;2.33;;
28547;SDS011;68292;49.600;8.746;2023-03-26T04:03:56;4.37;;;1.93;;
28547;SDS011;68292;49.600;8.746;2023-03-26T04:06:39;4.70;;;2.27;;
28547;SDS011;68292;49.600;8.746;2023-03-26T04:09:11;3.03;;;1.90;;
28547;SDS011;68292;49.600;8.746;2023-03-26T04:11:41;4.80;;;2.07;;
28547;SDS011;68292;49.600;8.746;2023-03-26T04:14:24;2.90;;;1.87;;
28547;SDS011;68292;49.600;8.746;2023-03-26T04:16:57;3.10;;;1.70;;
28547;SDS011;68292;49.600;8.746;2023-03-26T04:19:29;4.03;;;1.67;;
28547;SDS011;68292;49.600;8.746;2023-03-26T04:21:58;5.50;;;2.10;;
28547;SDS011;68292;49.600;8.746;2023-03-26T04:24:33;4.57;;;1.83;;
28547;SDS011;68292;49.600;8.746;2023-03-26T04:27:26;5.73;;;2.07;;
28547;SDS011;68292;49.600;8.746;2023-03-26T04:30:17;5.40;;;2.40;;
28547;SDS011;68292;49.600;8.746;2023-03-26T04:33:02;3.07;;;2.10;;
28547;SDS011;68292;49.600;8.746;2023-03-26T04:35:37;3.63;;;1.83;;
28547;SDS011;68292;49.600;8.746;2023-03-26T04:38:09;3.30;;;2.17;;
28547;SDS011;68292;49.600;8.746;2023-03-26T04:40:45;3.77;;;2.50;;
28547;SDS011;68292;49.600;8.746;2023-03-26T04:43:16;3.50;;;1.73;;
28547;SDS011;68292;49.600;8.746;2023-03-26T04:45:47;6.77;;;2.30;;
28547;SDS011;68292;49.600;8.746;2023-03-26T04:48:19;3.70;;;1.93;;
28547;SDS011;68292;49.600;8.746;2023-03-26T04:50:50;3.43;;;1.87;;
28547;SDS011;68292;49.600;8.746;2023-03-26T04:53:20;3.37;;;1.90;;
28547;SDS011;68292;49.600;8.746;2023-03-26T04:56:22;4.37;;;1.97;;
28547;SDS011;68292;49.600;8.746;2023-03-26T04:59:23;6.53;;;2.20;;
28547;SDS011;68292;49.600;8.746;2023-03-26T05:01:56;2.40;;;1.73;;
28547;SDS011;68292;49.600;8.746;2023-03-26T05:04:30;5.07;;;2.30;;
28547;SDS011;68292;49.600;8.746;2023-03-26T05:07:01;6.00;;;2.30;;
28547;SDS011;68292;49.600;8.746;2023-03-26T05:09:40;6.57;;;2.10;;
28547;SDS011;68292;49.600;8.746;2023-03-26T05:12:11;4.17;;;2.30;;
28547;SDS011;68292;49.600;8.746;2023-03-26T05:14:51;4.20;;;1.80;;
28547;SDS011;68292;49.600;8.746;2023-03-26T05:17:52;5.17;;;3.07;;
28547;SDS011;68292;49.600;8.746;2023-03-26T05:20:41;3.10;;;2.40;;
28547;SDS011;68292;49.600;8.746;2023-03-26T05:23:11;4.70;;;2.60;;
28547;SDS011;68292;49.600;8.746;2023-03-26T05:25:44;4.77;;;2.77;;
28547;SDS011;68292;49.600;8.746;2023-03-26T05:28:18;4.47;;;2.57;;
28547;SDS011;68292;49.600;8.746;2023-03-26T05:30:54;4.73;;;2.10;;
28547;SDS011;68292;49.600;8.746;2023-03-26T05:33:26;3.10;;;2.20;;
28547;SDS011;68292;49.600;8.746;2023-03-26T05:36:04;5.47;;;2.57;;
28547;SDS011;68292;49.600;8.746;2023-03-26T05:38:42;3.87;;;2.20;;
28547;SDS011;68292;49.600;8.746;2023-03-26T05:41:35;5.03;;;2.20;;
28547;SDS011;68292;49.600;8.746;2023-03-26T05:44:03;3.30;;;2.20;;
28547;SDS011;68292;49.600;8.746;2023-03-26T05:46:32;3.10;;;1.87;;
28547;SDS011;68292;49.600;8.746;2023-03-26T05:49:01;4.53;;;2.00;;
28547;SDS011;68292;49.600;8.746;2023-03-26T05:51:33;3.97;;;2.60;;
28547;SDS011;68292;49.600;8.746;2023-03-26T05:54:29;4.27;;;2.17;;
28547;SDS011;68292;49.600;8.746;2023-03-26T05:57:16;5.47;;;2.13;;
28547;SDS011;68292;49.600;8.746;2023-03-26T06:00:20;3.93;;;2.33;;
28547;SDS011;68292;49.600;8.746;2023-03-26T06:02:52;4.43;;;2.00;;
28547;SDS011;68292;49.600;8.746;2023-03-26T06:05:41;4.13;;;2.53;;
28547;SDS011;68292;49.600;8.746;2023-03-26T06:08:29;3.93;;;2.53;;
28547;SDS011;68292;49.600;8.746;2023-03-26T06:11:02;6.63;;;2.67;;
28547;SDS011;68292;49.600;8.746;2023-03-26T06:13:36;4.13;;;2.33;;
28547;SDS011;68292;49.600;8.746;2023-03-26T06:16:05;4.40;;;2.20;;
28547;SDS011;68292;49.600;8.746;2023-03-26T06:19:05;3.47;;;2.50;;
28547;SDS011;68292;49.600;8.746;2023-03-26T06:21:52;5.77;;;2.30;;
28547;SDS011;68292;49.600;8.746;2023-03-26T06:24:25;3.83;;;2.40;;
28547;SDS011;68292;49.600;8.746;2023-03-26T06:27:30;4.00;;;2.20;;
28547;SDS011;68292;49.600;8.746;2023-03-26T06:30:28;6.27;;;2.50;;
28547;SDS011;68292;49.600;8.746;2023-03-26T06:33:06;4.60;;;2.70;;
28547;SDS011;68292;49.600;8.746;2023-03-26T06:35:42;3.63;;;2.57;;
28547;SDS011;68292;49.600;8.746;2023-03-26T06:38:13;2.93;;;2.33;;
28547;SDS011;68292;49.600;8.746;2023-03-26T06:40:42;4.87;;;2.67;;
28547;SDS011;68292;49.600;8.746;2023-03-26T06:43:24;3.93;;;2.37;;
28547;SDS011;68292;49.600;8.746;2023-03-26T06:45:55;5.33;;;2.90;;
28547;SDS011;68292;49.600;8.746;2023-03-26T06:48:42;3.23;;;2.47;;
28547;SDS011;68292;49.600;8.746;2023-03-26T06:51:23;4.77;;;2.33;;
28547;SDS011;68292;49.600;8.746;2023-03-26T06:54:06;4.30;;;2.50;;
28547;SDS011;68292;49.600;8.746;2023-03-26T06:56:56;2.77;;;2.27;;
28547;SDS011;68292;49.600;8.746;2023-03-26T06:59:36;6.10;;;2.77;;
28547;SDS011;68292;49.600;8.746;2023-03-26T07:02:23;3.83;;;2.00;;
28547;SDS011;68292;49.600;8.746;2023-03-26T07:05:25;3.10;;;2.10;;
28547;SDS011;68292;49.600;8.746;2023-03-26T07:08:17;3.97;;;2.30;;
28547;SDS011;68292;49.600;8.746;2023-03-26T07:11:05;4.43;;;2.37;;
28547;SDS011;68292;49.600;8.746;2023-03-26T07:14:09;4.70;;;2.07;;
28547;SDS011;68292;49.600;8.746;2023-03-26T07:16:49;4.20;;;2.83;;
28547;SDS011;68292;49.600;8.746;2023-03-26T07:19:37;6.47;;;3.60;;
28547;SDS011;68292;49.600;8.746;2023-03-26T07:22:06;5.77;;;3.20;;
28547;SDS011;68292;49.600;8.746;2023-03-26T07:25:17;6.60;;;2.60;;
28547;SDS011;68292;49.600;8.746;2023-03-26T07:28:09;5.77;;;2.10;;
28547;SDS011;68292;49.600;8.746;2023-03-26T07:30:59;3.63;;;2.07;;
28547;SDS011;68292;49.600;8.746;2023-03-26T07:33:52;2.67;;;1.73;;
28547;SDS011;68292;49.600;8.746;2023-03-26T07:36:59;2.87;;;1.83;;
28547;SDS011;68292;49.600;8.746;2023-03-26T07:39:53;3.20;;;2.03;;
28547;SDS011;68292;49.600;8.746;2023-03-26T07:42:49;6.70;;;2.50;;
28547;SDS011;68292;49.600;8.746;2023-03-26T07:45:46;4.63;;;2.67;;
28547;SDS011;68292;49.600;8.746;2023-03-26T07:48:37;4.57;;;2.50;;
28547;SDS011;68292;49.600;8.746;2023-03-26T07:51:14;5.20;;;2.47;;
28547;SDS011;68292;49.600;8.746;2023-03-26T07:53:53;8.57;;;3.17;;
28547;SDS011;68292;49.600;8.746;2023-03-26T07:56:35;10.30;;;7.13;;
28547;SDS011;68292;49.600;8.746;2023-03-26T07:59:29;10.13;;;6.83;;
28547;SDS011;68292;49.600;8.746;2023-03-26T08:02:35;9.77;;;5.97;;
28547;SDS011;68292;49.600;8.746;2023-03-26T08:05:39;10.10;;;5.97;;
28547;SDS011;68292;49.600;8.746;2023-03-26T08:08:31;7.80;;;4.30;;
28547;SDS011;68292;49.600;8.746;2023-03-26T08:11:41;5.30;;;2.77;;
28547;SDS011;68292;49.600;8.746;2023-03-26T08:14:29;5.97;;;2.83;;
28547;SDS011;68292;49.600;8.746;2023-03-26T08:17:12;3.00;;;2.30;;
28547;SDS011;68292;49.600;8.746;2023-03-26T08:20:00;5.37;;;3.20;;
28547;SDS011;68292;49.600;8.746;2023-03-26T08:22:37;6.23;;;3.13;;
28547;SDS011;68292;49.600;8.746;2023-03-26T08:25:26;4.20;;;3.13;;
28547;SDS011;68292;49.600;8.746;2023-03-26T08:28:07;4.97;;;3.20;;
28547;SDS011;68292;49.600;8.746;2023-03-26T08:30:47;3.77;;;2.53;;
28547;SDS011;68292;49.600;8.746;2023-03-26T08:33:17;3.00;;;2.20;;
28547;SDS011;68292;49.600;8.746;2023-03-26T08:35:47;3.87;;;2.13;;
28547;SDS011;68292;49.600;8.746;2023-03-26T08:38:17;3.67;;;1.97;;
28547;SDS011;68292;49.600;8.746;2023-03-26T08:47:59;2.90;;;2.30;;
28547;SDS011;68292;49.600;8.746;2023-03-26T08:51:21;2.90;;;1.97;;
28547;SDS011;68292;49.600;8.746;2023-03-26T08:54:46;2.57;;;2.07;;
28547;SDS011;68292;49.600;8.746;2023-03-26T09:04:41;3.40;;;2.47;;
28547;SDS011;68292;49.600;8.746;2023-03-26T09:07:50;3.83;;;1.90;;
28547;SDS011;68292;49.600;8.746;2023-03-26T09:10:49;1.70;;;1.40;;
28547;SDS011;68292;49.600;8.746;2023-03-26T09:20:36;2.63;;;1.60;;
28547;SDS011;68292;49.600;8.746;2023-03-26T09:23:29;3.47;;;2.10;;
28547;SDS011;68292;49.600;8.746;2023-03-26T09:26:39;1.70;;;1.60;;
28547;SDS011;68292;49.600;8.746;2023-03-26T09:29:25;4.17;;;1.90;;
28547;SDS011;68292;49.600;8.746;2023-03-26T09:32:34;2.83;;;1.43;;
28547;SDS011;68292;49.600;8.746;2023-03-26T09:35:36;3.20;;;1.23;;
28547;SDS011;68292;49.600;8.746;2023-03-26T09:38:27;3.10;;;1.60;;
28547;SDS011;68292;49.600;8.746;2023-03-26T09:41:15;2.13;;;1.17;;
28547;SDS011;68292;49.600;8.746;2023-03-26T09:50:34;1.40;;;1.30;;
28547;SDS011;68292;49.600;8.746;2023-03-26T09:53:22;3.07;;;1.80;;
28547;SDS011;68292;49.600;8.746;2023-03-26T09:56:30;3.17;;;1.50;;
28547;SDS011;68292;49.600;8.746;2023-03-26T09:59:17;1.77;;;1.37;;
28547;SDS011;68292;49.600;8.746;2023-03-26T10:02:12;2.47;;;2.23;;
28547;SDS011;68292;49.600;8.746;2023-03-26T10:05:18;3.67;;;2.40;;
28547;SDS011;68292;49.600;8.746;2023-03-26T10:08:02;2.83;;;1.70;;
28547;SDS011;68292;49.600;8.746;2023-03-26T10:10:55;1.57;;;1.47;;
28547;SDS011;68292;49.600;8.746;2023-03-26T10:13:32;2.23;;;1.57;;
28547;SDS011;68292;49.600;8.746;2023-03-26T10:16:19;1.77;;;1.30;;
28547;SDS011;68292;49.600;8.746;2023-03-26T10:18:58;1.53;;;1.20;;
28547;SDS011;68292;49.600;8.746;2023-03-26T10:21:49;3.03;;;2.47;;
28547;SDS011;68292;49.600;8.746;2023-03-26T10:24:31;2.87;;;2.27;;
28547;SDS011;68292;49.600;8.746;2023-03-26T10:27:25;4.00;;;2.57;;
28547;SDS011;68292;49.600;8.746;2023-03-26T10:30:13;3.47;;;1.83;;
28547;SDS011;68292;49.600;8.746;2023-03-26T10:33:18;2.30;;;2.10;;
28547;SDS011;68292;49.600;8.746;2023-03-26T10:39:00;2.10;;;1.63;;
28547;SDS011;68292;49.600;8.746;2023-03-26T10:42:14;2.77;;;2.33;;
28547;SDS011;68292;49.600;8.746;2023-03-26T10:45:08;3.07;;;2.30;;
28547;SDS011;68292;49.600;8.746;2023-03-26T10:48:01;2.47;;;1.50;;
28547;SDS011;68292;49.600;8.746;2023-03-26T10:51:06;2.90;;;1.60;;
28547;SDS011;68292;49.600;8.746;2023-03-26T10:54:07;2.47;;;1.73;;
28547;SDS011;68292;49.600;8.746;2023-03-26T10:56:43;3.57;;;1.77;;
28547;SDS011;68292;49.600;8.746;2023-03-26T10:59:15;5.20;;;3.00;;
28547;SDS011;68292;49.600;8.746;2023-03-26T11:01:52;2.87;;;2.60;;
28547;SDS011;68292;49.600;8.746;2023-03-26T11:05:08;3.63;;;2.50;;
28547;SDS011;68292;49.600;8.746;2023-03-26T11:07:55;2.70;;;2.13;;
28547;SDS011;68292;49.600;8.746;2023-03-26T11:10:36;3.27;;;2.80;;
28547;SDS011;68292;49.600;8.746;2023-03-26T11:13:18;3.50;;;2.20;;
28547;SDS011;68292;49.600;8.746;2023-03-26T11:15:55;2.87;;;2.30;;
28547;SDS011;68292;49.600;8.746;2023-03-26T11:18:32;2.53;;;2.10;;
28547;SDS011;68292;49.600;8.746;2023-03-26T11:21:09;3.77;;;2.10;;
28547;SDS011;68292;49.600;8.746;2023-03-26T11:23:48;3.03;;;2.27;;
28547;SDS011;68292;49.600;8.746;2023-03-26T11:26:38;2.30;;;2.10;;
28547;SDS011;68292;49.600;8.746;2023-03-26T11:32:16;2.33;;;1.70;;
28547;SDS011;68292;49.600;8.746;2023-03-26T11:34:51;3.10;;;2.00;;
28547;SDS011;68292;49.600;8.746;2023-03-26T11:37:28;4.07;;;3.43;;
28547;SDS011;68292;49.600;8.746;2023-03-26T11:40:02;4.03;;;3.10;;
28547;SDS011;68292;49.600;8.746;2023-03-26T11:42:38;3.03;;;2.70;;
28547;SDS011;68292;49.600;8.746;2023-03-26T11:45:13;3.83;;;2.27;;
28547;SDS011;68292;49.600;8.746;2023-03-26T11:47:45;3.40;;;2.20;;
28547;SDS011;68292;49.600;8.746;2023-03-26T11:50:19;3.50;;;2.07;;
28547;SDS011;68292;49.600;8.746;2023-03-26T11:52:52;2.67;;;1.77;;
28547;SDS011;68292;49.600;8.746;2023-03-26T11:55:24;2.00;;;1.80;;
28547;SDS011;68292;49.600;8.746;2023-03-26T11:57:56;1.50;;;1.37;;
28547;SDS011;68292;49.600;8.746;2023-03-26T12:00:26;2.63;;;1.77;;
28547;SDS011;68292;49.600;8.746;2023-03-26T12:02:56;3.23;;;1.80;;
28547;SDS011;68292;49.600;8.746;2023-03-26T12:05:30;2.93;;;1.83;;
28547;SDS011;68292;49.600;8.746;2023-03-26T12:08:03;4.07;;;2.83;;
28547;SDS011;68292;49.600;8.746;2023-03-26T12:10:50;10.87;;;7.13;;
28547;SDS011;68292;49.600;8.746;2023-03-26T12:13:33;7.27;;;4.27;;
28547;SDS011;68292;49.600;8.746;2023-03-26T12:16:09;3.27;;;2.27;;
28547;SDS011;68292;49.600;8.746;2023-03-26T12:18:40;2.87;;;2.60;;
28547;SDS011;68292;49.600;8.746;2023-03-26T12:21:10;3.07;;;2.63;;
28547;SDS011;68292;49.600;8.746;2023-03-26T12:23:50;2.97;;;2.27;;
28547;SDS011;68292;49.600;8.746;2023-03-26T12:26:28;2.20;;;2.00;;
28547;SDS011;68292;49.600;8.746;2023-03-26T12:29:10;2.80;;;1.97;;
28547;SDS011;68292;49.600;8.746;2023-03-26T12:31:49;1.50;;;1.40;;
28547;SDS011;68292;49.600;8.746;2023-03-26T12:34:22;4.10;;;1.87;;
28547;SDS011;68292;49.600;8.746;2023-03-26T12:37:00;1.87;;;1.47;;
28547;SDS011;68292;49.600;8.746;2023-03-26T12:39:32;2.37;;;1.73;;
28547;SDS011;68292;49.600;8.746;2023-03-26T12:42:25;1.90;;;1.80;;
28547;SDS011;68292;49.600;8.746;2023-03-26T12:45:21;2.13;;;2.00;;
28547;SDS011;68292;49.600;8.746;2023-03-26T12:47:56;3.17;;;2.20;;
28547;SDS011;68292;49.600;8.746;2023-03-26T12:50:35;2.03;;;1.80;;
28547;SDS011;68292;49.600;8.746;2023-03-26T12:53:36;1.67;;;1.40;;
28547;SDS011;68292;49.600;8.746;2023-03-26T12:56:23;1.83;;;1.57;;
28547;SDS011;68292;49.600;8.746;2023-03-26T12:59:12;2.53;;;1.60;;
28547;SDS011;68292;49.600;8.746;2023-03-26T13:01:59;2.47;;;1.70;;
28547;SDS011;68292;49.600;8.746;2023-03-26T13:04:48;3.10;;;1.70;;
28547;SDS011;68292;49.600;8.746;2023-03-26T13:07:37;1.33;;;1.13;;
28547;SDS011;68292;49.600;8.746;2023-03-26T13:10:33;1.60;;;1.47;;
28547;SDS011;68292;49.600;8.746;2023-03-26T13:13:17;1.70;;;1.50;;
28547;SDS011;68292;49.600;8.746;2023-03-26T13:16:12;2.83;;;1.40;;
28547;SDS011;68292;49.600;8.746;2023-03-26T13:18:51;2.40;;;1.50;;
28547;SDS011;68292;49.600;8.746;2023-03-26T13:21:28;2.70;;;1.50;;
28547;SDS011;68292;49.600;8.746;2023-03-26T13:24:07;1.37;;;1.10;;
28547;SDS011;68292;49.600;8.746;2023-03-26T13:26:49;2.20;;;1.23;;
28547;SDS011;68292;49.600;8.746;2023-03-26T13:29:32;3.33;;;1.93;;
28547;SDS011;68292;49.600;8.746;2023-03-26T13:32:11;1.97;;;1.50;;
28547;SDS011;68292;49.600;8.746;2023-03-26T13:34:56;2.70;;;1.37;;
28547;SDS011;68292;49.600;8.746;2023-03-26T13:37:41;2.33;;;1.67;;
28547;SDS011;68292;49.600;8.746;2023-03-26T13:40:23;1.43;;;1.27;;
28547;SDS011;68292;49.600;8.746;2023-03-26T13:43:04;2.83;;;1.43;;
28547;SDS011;68292;49.600;8.746;2023-03-26T13:45:49;2.83;;;1.30;;
28547;SDS011;68292;49.600;8.746;2023-03-26T13:48:25;2.17;;;1.63;;
28547;SDS011;68292;49.600;8.746;2023-03-26T13:51:02;3.43;;;2.30;;
28547;SDS011;68292;49.600;8.746;2023-03-26T13:53:38;2.83;;;1.80;;
28547;SDS011;68292;49.600;8.746;2023-03-26T13:56:13;3.83;;;1.53;;
28547;SDS011;68292;49.600;8.746;2023-03-26T13:58:45;2.97;;;1.77;;
28547;SDS011;68292;49.600;8.746;2023-03-26T14:01:22;2.63;;;2.37;;
28547;SDS011;68292;49.600;8.746;2023-03-26T14:04:01;2.33;;;1.80;;
28547;SDS011;68292;49.600;8.746;2023-03-26T14:06:44;1.80;;;1.53;;
28547;SDS011;68292;49.600;8.746;2023-03-26T14:09:24;1.73;;;1.20;;
28547;SDS011;68292;49.600;8.746;2023-03-26T14:12:00;1.57;;;1.10;;
28547;SDS011;68292;49.600;8.746;2023-03-26T14:14:48;1.70;;;1.10;;
28547;SDS011;68292;49.600;8.746;2023-03-26T14:17:21;1.47;;;1.10;;
28547;SDS011;68292;49.600;8.746;2023-03-26T14:23:08;4.83;;;1.93;;
28547;SDS011;68292;49.600;8.746;2023-03-26T14:26:09;2.00;;;1.27;;
28547;SDS011;68292;49.600;8.746;2023-03-26T14:28:56;3.77;;;1.63;;
28547;SDS011;68292;49.600;8.746;2023-03-26T14:31:46;2.60;;;1.47;;
28547;SDS011;68292;49.600;8.746;2023-03-26T14:34:29;4.33;;;1.20;;
28547;SDS011;68292;49.600;8.746;2023-03-26T14:37:18;5.33;;;1.50;;
28547;SDS011;68292;49.600;8.746;2023-03-26T14:46:29;1.40;;;1.30;;
28547;SDS011;68292;49.600;8.746;2023-03-26T14:53:02;4.13;;;1.33;;
28547;SDS011;68292;49.600;8.746;2023-03-26T14:55:45;2.43;;;1.50;;
28547;SDS011;68292;49.600;8.746;2023-03-26T14:58:54;2.30;;;1.70;;
28547;SDS011;68292;49.600;8.746;2023-03-26T15:15:44;1.13;;;1.03;;
28547;SDS011;68292;49.600;8.746;2023-03-26T15:18:52;2.20;;;1.13;;
28547;SDS011;68292;49.600;8.746;2023-03-26T15:25:56;1.30;;;1.10;;
28547;SDS011;68292;49.600;8.746;2023-03-26T15:32:38;1.40;;;1.27;;
28547;SDS011;68292;49.600;8.746;2023-03-26T15:35:55;2.40;;;1.53;;
28547;SDS011;68292;49.600;8.746;2023-03-26T15:38:58;2.37;;;1.60;;
28547;SDS011;68292;49.600;8.746;2023-03-26T15:42:04;1.60;;;1.30;;
28547;SDS011;68292;49.600;8.746;2023-03-26T15:44:51;1.83;;;1.30;;
28547;SDS011;68292;49.600;8.746;2023-03-26T15:50:41;1.60;;;1.50;;
28547;SDS011;68292;49.600;8.746;2023-03-26T15:53:32;2.23;;;1.50;;
28547;SDS011;68292;49.600;8.746;2023-03-26T15:56:12;1.73;;;1.63;;
28547;SDS011;68292;49.600;8.746;2023-03-26T15:58:55;1.60;;;1.50;;
28547;SDS011;68292;49.600;8.746;2023-03-26T16:01:40;1.70;;;1.60;;
28547;SDS011;68292;49.600;8.746;2023-03-26T16:04:20;1.80;;;1.37;;
28547;SDS011;68292;49.600;8.746;2023-03-26T16:07:29;2.90;;;1.67;;
28547;SDS011;68292;49.600;8.746;2023-03-26T16:10:19;3.07;;;1.80;;
28547;SDS011;68292;49.600;8.746;2023-03-26T16:13:16;2.33;;;1.80;;
28547;SDS011;68292;49.600;8.746;2023-03-26T16:16:21;2.60;;;1.90;;
28547;SDS011;68292;49.600;8.746;2023-03-26T16:18:55;2.30;;;1.60;;
28547;SDS011;68292;49.600;8.746;2023-03-26T16:21:35;2.97;;;1.70;;
28547;SDS011;68292;49.600;8.746;2023-03-26T16:24:22;1.63;;;1.53;;
28547;SDS011;68292;49.600;8.746;2023-03-26T16:30:05;2.37;;;1.70;;
28547;SDS011;68292;49.600;8.746;2023-03-26T16:33:02;3.07;;;1.97;;
28547;SDS011;68292;49.600;8.746;2023-03-26T16:35:58;1.90;;;1.70;;
28547;SDS011;68292;49.600;8.746;2023-03-26T16:38:52;2.73;;;1.70;;
28547;SDS011;68292;49.600;8.746;2023-03-26T16:41:22;1.97;;;1.67;;
28547;SDS011;68292;49.600;8.746;2023-03-26T16:44:05;2.57;;;2.10;;
28547;SDS011;68292;49.600;8.746;2023-03-26T16:46:41;2.17;;;1.50;;
28547;SDS011;68292;49.600;8.746;2023-03-26T16:49:24;2.00;;;1.90;;
28547;SDS011;68292;49.600;8.746;2023-03-26T16:52:12;2.33;;;1.70;;
28547;SDS011;68292;49.600;8.746;2023-03-26T16:54:53;2.40;;;2.20;;
28547;SDS011;68292;49.600;8.746;2023-03-26T16:57:35;2.53;;;2.10;;
28547;SDS011;68292;49.600;8.746;2023-03-26T17:00:19;2.20;;;2.00;;
28547;SDS011;68292;49.600;8.746;2023-03-26T17:03:15;1.93;;;1.80;;
28547;SDS011;68292;49.600;8.746;2023-03-26T17:05:57;3.57;;;2.47;;
28547;SDS011;68292;49.600;8.746;2023-03-26T17:08:41;2.57;;;1.77;;
28547;SDS011;68292;49.600;8.746;2023-03-26T17:11:23;2.30;;;2.10;;
28547;SDS011;68292;49.600;8.746;2023-03-26T17:14:06;2.00;;;1.80;;
28547;SDS011;68292;49.600;8.746;2023-03-26T17:16:46;2.93;;;2.00;;
28547;SDS011;68292;49.600;8.746;2023-03-26T17:19:21;2.73;;;2.10;;
28547;SDS011;68292;49.600;8.746;2023-03-26T17:21:58;3.70;;;2.53;;
28547;SDS011;68292;49.600;8.746;2023-03-26T17:24:37;8.23;;;5.87;;
28547;SDS011;68292;49.600;8.746;2023-03-26T17:27:39;5.30;;;4.80;;
28547;SDS011;68292;49.600;8.746;2023-03-26T17:33:31;3.83;;;3.43;;
28547;SDS011;68292;49.600;8.746;2023-03-26T17:36:19;3.40;;;3.10;;